| time (UTC) | temp C | wind direction | speed KPH | gust KPH | rain 1hr cm | rain 24hr cm | rain mn cm | humidity % | barometer mb |
| 20260906225314 | 23 | 340 | 11.3 | 14.5 | 0.00 | 0.00 | 0.00 | 26 | 1023.7 |
| 20260906224813 | 23 | 332 | 8.0 | 11.3 | 0.00 | 0.00 | 0.00 | 26 | 1023.9 |
| 20260906224314 | 23 | 5 | 4.8 | 6.4 | 0.00 | 0.00 | 0.00 | 26 | 1023.9 |
| 20260906223813 | 24 | 326 | 9.7 | 12.9 | 0.00 | 0.00 | 0.00 | 26 | 1023.9 |
| 20260906223312 | 24 | 348 | 11.3 | 16.1 | 0.00 | 0.00 | 0.00 | 26 | 1023.7 |
| 20260906222813 | 24 | 351 | 8.0 | 12.9 | 0.00 | 0.00 | 0.00 | 26 | 1023.7 |
| 20260906222313 | 24 | 350 | 6.4 | 8.0 | 0.00 | 0.00 | 0.00 | 26 | 1023.7 |
| 20260906221813 | 25 | 349 | 6.4 | 9.7 | 0.00 | 0.00 | 0.00 | 25 | 1023.7 |
| 20260906221313 | 25 | 341 | 6.4 | 9.7 | 0.00 | 0.00 | 0.00 | 25 | 1023.7 |
| 20260906220823 | 25 | 345 | 6.4 | 9.7 | 0.00 | 0.00 | 0.00 | 25 | 1023.7 |
| 20260906220313 | 24 | 352 | 8.0 | 12.9 | 0.00 | 0.00 | 0.00 | 25 | 1023.9 |
| 20260906215814 | 24 | 346 | 4.8 | 9.7 | 0.00 | 0.00 | 0.00 | 25 | 1023.9 |
| 20260906215313 | 24 | 332 | 8.0 | 11.3 | 0.00 | 0.00 | 0.00 | 25 | 1024.0 |
| 20260906214813 | 24 | 339 | 12.9 | 14.5 | 0.00 | 0.00 | 0.00 | 25 | 1024.0 |
| 20260906214313 | 24 | 358 | 3.2 | 6.4 | 0.00 | 0.00 | 0.00 | 25 | 1024.1 |
| 20260906213814 | 25 | 8 | 6.4 | 11.3 | 0.00 | 0.00 | 0.00 | 25 | 1024.1 |
| 20260906213313 | 25 | 308 | 4.8 | 6.4 | 0.00 | 0.00 | 0.00 | 25 | 1024.2 |
| 20260906212813 | 25 | 307 | 9.7 | 11.3 | 0.00 | 0.00 | 0.00 | 24 | 1024.2 |
| 20260906212313 | 25 | 2 | 6.4 | 9.7 | 0.00 | 0.00 | 0.00 | 24 | 1024.4 |
| 20260906211813 | 25 | 338 | 4.8 | 9.7 | 0.00 | 0.00 | 0.00 | 23 | 1024.4 |
| 20260906211313 | 25 | 337 | 8.0 | 9.7 | 0.00 | 0.00 | 0.00 | 23 | 1024.4 |
| 20260906210813 | 25 | 343 | 6.4 | 12.9 | 0.00 | 0.00 | 0.00 | 25 | 1024.4 |
| 20260906210313 | 24 | 337 | 8.0 | 9.7 | 0.00 | 0.00 | 0.00 | 24 | 1024.4 |
| 20260906205813 | 24 | 354 | 6.4 | 9.7 | 0.00 | 0.00 | 0.00 | 25 | 1024.5 |
| 20260906205313 | 24 | 188 | 1.6 | 6.4 | 0.00 | 0.00 | 0.00 | 25 | 1024.8 |
| 20260906204813 | 24 | 326 | 6.4 | 8.0 | 0.00 | 0.00 | 0.00 | 25 | 1024.8 |
| 20260906204314 | 24 | 336 | 9.7 | 14.5 | 0.00 | 0.00 | 0.00 | 25 | 1024.8 |
| 20260906203813 | 24 | 350 | 6.4 | 9.7 | 0.00 | 0.00 | 0.00 | 25 | 1024.8 |
| 20260906203313 | 24 | 352 | 12.9 | 16.1 | 0.00 | 0.00 | 0.00 | 25 | 1024.9 |
| 20260906202813 | 23 | 348 | 9.7 | 14.5 | 0.00 | 0.00 | 0.00 | 25 | 1024.9 |
| 20260906202316 | 23 | 343 | 8.0 | 11.3 | 0.00 | 0.00 | 0.00 | 25 | 1025.1 |
| 20260906201813 | 23 | 352 | 14.5 | 17.7 | 0.00 | 0.00 | 0.00 | 24 | 1025.0 |
| 20260906201313 | 23 | 329 | 8.0 | 12.9 | 0.00 | 0.00 | 0.00 | 24 | 1025.1 |
| 20260906200814 | 23 | 338 | 9.7 | 16.1 | 0.00 | 0.00 | 0.00 | 25 | 1025.3 |
| 20260906200313 | 23 | 328 | 12.9 | 14.5 | 0.00 | 0.00 | 0.00 | 25 | 1025.3 |
| 20260906195813 | 23 | 340 | 9.7 | 12.9 | 0.00 | 0.00 | 0.00 | 25 | 1025.3 |
| 20260906195313 | 23 | 4 | 4.8 | 8.0 | 0.00 | 0.00 | 0.00 | 23 | 1025.3 |
| 20260906194813 | 23 | 34 | 3.2 | 4.8 | 0.00 | 0.00 | 0.00 | 25 | 1025.3 |
| 20260906194313 | 23 | 335 | 11.3 | 14.5 | 0.00 | 0.00 | 0.00 | 25 | 1025.4 |
| 20260906193813 | 23 | 2 | 9.7 | 14.5 | 0.00 | 0.00 | 0.00 | 24 | 1025.5 |
| 20260906193313 | 25 | 23 | 8.0 | 11.3 | 0.00 | 0.00 | 0.00 | 23 | 1025.5 |
| 20260906192813 | 25 | 359 | 9.7 | 17.7 | 0.00 | 0.00 | 0.00 | 24 | 1025.5 |
| 20260906192313 | 24 | 337 | 6.4 | 12.9 | 0.00 | 0.00 | 0.00 | 24 | 1025.4 |
| 20260906191813 | 25 | 336 | 11.3 | 17.7 | 0.00 | 0.00 | 0.00 | 24 | 1025.5 |
| 20260906191313 | 25 | 360 | 12.9 | 16.1 | 0.00 | 0.00 | 0.00 | 24 | 1025.4 |
| 20260906190813 | 25 | 337 | 8.0 | 17.7 | 0.00 | 0.00 | 0.00 | 23 | 1025.5 |
| 20260906190313 | 25 | 329 | 8.0 | 12.9 | 0.00 | 0.00 | 0.00 | 24 | 1025.5 |
| 20260906185813 | 25 | 333 | 12.9 | 17.7 | 0.00 | 0.00 | 0.00 | 22 | 1025.8 |
| 20260906185313 | 24 | 87 | 6.4 | 11.3 | 0.00 | 0.00 | 0.00 | 24 | 1025.8 |
| 20260906184814 | 23 | 334 | 3.2 | 9.7 | 0.00 | 0.00 | 0.00 | 25 | 1025.8 |
| 20260906184313 | 24 | 13 | 4.8 | 6.4 | 0.00 | 0.00 | 0.00 | 25 | 1025.9 |
| 20260906183814 | 24 | 43 | 6.4 | 11.3 | 0.00 | 0.00 | 0.00 | 24 | 1026.0 |
| 20260906183313 | 24 | 351 | 9.7 | 12.9 | 0.00 | 0.00 | 0.00 | 25 | 1026.1 |
| 20260906182813 | 24 | 339 | 8.0 | 11.3 | 0.00 | 0.00 | 0.00 | 23 | 1026.1 |
| 20260906182321 | 24 | 349 | 9.7 | 12.9 | 0.00 | 0.00 | 0.00 | 24 | 1026.3 |
| 20260906181814 | 24 | 357 | 6.4 | 11.3 | 0.00 | 0.00 | 0.00 | 25 | 1026.4 |
| 20260906181313 | 23 | 345 | 4.8 | 8.0 | 0.00 | 0.00 | 0.00 | 25 | 1026.4 |
| 20260906180814 | 23 | 333 | 11.3 | 12.9 | 0.00 | 0.00 | 0.00 | 24 | 1026.5 |
| 20260906180313 | 23 | 351 | 8.0 | 12.9 | 0.00 | 0.00 | 0.00 | 24 | 1026.6 |
| 20260906175814 | 23 | 32 | 6.4 | 9.7 | 0.00 | 0.00 | 0.00 | 24 | 1026.6 |
| 20260906175314 | 23 | 21 | 6.4 | 12.9 | 0.00 | 0.00 | 0.00 | 24 | 1026.8 |
| 20260906174813 | 23 | 32 | 4.8 | 9.7 | 0.00 | 0.00 | 0.00 | 27 | 1026.9 |
| 20260906174313 | 23 | 114 | 8.0 | 11.3 | 0.00 | 0.00 | 0.00 | 26 | 1026.9 |
| 20260906173813 | 22 | 134 | 6.4 | 11.3 | 0.00 | 0.00 | 0.00 | 24 | 1026.9 |
| 20260906173313 | 22 | 159 | 3.2 | 4.8 | 0.00 | 0.00 | 0.00 | 26 | 1027.0 |
| 20260906172813 | 22 | 125 | 9.7 | 12.9 | 0.00 | 0.00 | 0.00 | 29 | 1027.1 |
| 20260906172318 | 22 | 97 | 6.4 | 11.3 | 0.00 | 0.00 | 0.00 | 31 | 1027.1 |
| 20260906171813 | 21 | 107 | 9.7 | 14.5 | 0.00 | 0.00 | 0.00 | 32 | 1027.3 |
| 20260906171315 | 21 | 131 | 8.0 | 12.9 | 0.00 | 0.00 | 0.00 | 32 | 1027.3 |
| 20260906170813 | 21 | 113 | 6.4 | 11.3 | 0.00 | 0.00 | 0.00 | 32 | 1027.3 |
| 20260906170316 | 21 | 106 | 8.0 | 11.3 | 0.00 | 0.00 | 0.00 | 32 | 1027.3 |
| 20260906165814 | 21 | 137 | 6.4 | 11.3 | 0.00 | 0.00 | 0.00 | 32 | 1027.4 |
| 20260906165313 | 21 | 133 | 6.4 | 11.3 | 0.00 | 0.00 | 0.00 | 32 | 1027.4 |
| 20260906164814 | 20 | 105 | 6.4 | 11.3 | 0.00 | 0.00 | 0.00 | 32 | 1027.4 |
| 20260906164313 | 20 | 123 | 6.4 | 9.7 | 0.00 | 0.00 | 0.00 | 32 | 1027.5 |
| 20260906163814 | 20 | 198 | 6.4 | 8.0 | 0.00 | 0.00 | 0.00 | 33 | 1027.4 |
| 20260906163313 | 20 | 140 | 6.4 | 9.7 | 0.00 | 0.00 | 0.00 | 34 | 1027.4 |
| 20260906162813 | 20 | 123 | 6.4 | 14.5 | 0.00 | 0.00 | 0.00 | 35 | 1027.4 |
| 20260906162313 | 19 | 87 | 9.7 | 12.9 | 0.00 | 0.00 | 0.00 | 35 | 1027.4 |
| 20260906161813 | 19 | 144 | 9.7 | 12.9 | 0.00 | 0.00 | 0.00 | 36 | 1027.4 |
| 20260906161313 | 19 | 122 | 9.7 | 11.3 | 0.00 | 0.00 | 0.00 | 36 | 1027.4 |
| 20260906160813 | 19 | 140 | 8.0 | 11.3 | 0.00 | 0.00 | 0.00 | 37 | 1027.4 |
| 20260906160313 | 18 | 116 | 11.3 | 14.5 | 0.00 | 0.00 | 0.00 | 37 | 1027.5 |
| 20260906155815 | 18 | 104 | 8.0 | 14.5 | 0.00 | 0.00 | 0.00 | 37 | 1027.5 |
| 20260906155313 | 18 | 106 | 9.7 | 14.5 | 0.00 | 0.00 | 0.00 | 37 | 1027.5 |
| 20260906154813 | 18 | 112 | 8.0 | 12.9 | 0.00 | 0.00 | 0.00 | 38 | 1027.5 |
| 20260906154313 | 18 | 129 | 9.7 | 14.5 | 0.00 | 0.00 | 0.00 | 41 | 1027.5 |
| 20260906153813 | 18 | 132 | 9.7 | 14.5 | 0.00 | 0.00 | 0.00 | 39 | 1027.5 |
| 20260906153313 | 17 | 150 | 11.3 | 14.5 | 0.00 | 0.00 | 0.00 | 39 | 1027.6 |
| 20260906152813 | 17 | 158 | 9.7 | 12.9 | 0.00 | 0.00 | 0.00 | 41 | 1027.6 |
| 20260906152313 | 17 | 115 | 8.0 | 14.5 | 0.00 | 0.00 | 0.00 | 41 | 1027.5 |
| 20260906151813 | 16 | 148 | 8.0 | 12.9 | 0.00 | 0.00 | 0.00 | 42 | 1027.6 |
| 20260906150853 | 16 | 146 | 6.4 | 8.0 | 0.00 | 0.00 | 0.00 | 44 | 1027.9 |
| 20260906150314 | 16 | 172 | 6.4 | 8.0 | 0.00 | 0.00 | 0.00 | 45 | 1027.9 |
| 20260906145813 | 16 | 165 | 9.7 | 12.9 | 0.00 | 0.00 | 0.00 | 44 | 1027.8 |
| 20260906145314 | 16 | 161 | 8.0 | 9.7 | 0.00 | 0.00 | 0.00 | 45 | 1027.9 |
| 20260906144814 | 16 | 151 | 8.0 | 11.3 | 0.00 | 0.00 | 0.00 | 44 | 1027.6 |
| 20260906144314 | 16 | 136 | 8.0 | 11.3 | 0.00 | 0.00 | 0.00 | 45 | 1027.5 |
| 20260906143814 | 15 | 128 | 9.7 | 11.3 | 0.00 | 0.00 | 0.00 | 46 | 1027.6 |
| 20260906143317 | 15 | 136 | 9.7 | 11.3 | 0.00 | 0.00 | 0.00 | 46 | 1027.6 |
| 20260906142813 | 15 | 141 | 8.0 | 12.9 | 0.00 | 0.00 | 0.00 | 47 | 1027.5 |
| 20260906142313 | 15 | 135 | 11.3 | 14.5 | 0.00 | 0.00 | 0.00 | 46 | 1027.5 |
| 20260906141813 | 15 | 133 | 9.7 | 11.3 | 0.00 | 0.00 | 0.00 | 46 | 1027.5 |
| 20260906141314 | 15 | 132 | 8.0 | 11.3 | 0.00 | 0.00 | 0.00 | 46 | 1027.5 |
| 20260906140813 | 15 | 162 | 11.3 | 14.5 | 0.00 | 0.00 | 0.00 | 46 | 1027.6 |
| 20260906140317 | 15 | 172 | 12.9 | 17.7 | 0.00 | 0.00 | 0.00 | 47 | 1027.6 |
| 20260906135814 | 15 | 165 | 11.3 | 16.1 | 0.00 | 0.00 | 0.00 | 47 | 1027.6 |
| 20260906135314 | 14 | 173 | 12.9 | 17.7 | 0.00 | 0.00 | 0.00 | 48 | 1027.6 |
| 20260906134813 | 14 | 173 | 11.3 | 12.9 | 0.00 | 0.00 | 0.00 | 49 | 1027.5 |
| 20260906134313 | 14 | 168 | 9.7 | 11.3 | 0.00 | 0.00 | 0.00 | 50 | 1027.5 |
| 20260906133813 | 14 | 170 | 9.7 | 12.9 | 0.00 | 0.00 | 0.00 | 49 | 1027.5 |
| 20260906133313 | 14 | 171 | 9.7 | 12.9 | 0.00 | 0.00 | 0.00 | 48 | 1027.5 |
| 20260906132813 | 13 | 172 | 9.7 | 11.3 | 0.00 | 0.00 | 0.00 | 48 | 1027.4 |
| 20260906132313 | 13 | 183 | 6.4 | 8.0 | 0.00 | 0.00 | 0.00 | 49 | 1027.4 |
| 20260906131813 | 13 | 193 | 6.4 | 6.4 | 0.00 | 0.00 | 0.00 | 49 | 1027.3 |
| 20260906131313 | 13 | 181 | 4.8 | 6.4 | 0.00 | 0.00 | 0.00 | 49 | 1027.3 |
| 20260906130814 | 13 | 178 | 4.8 | 4.8 | 0.00 | 0.00 | 0.00 | 50 | 1027.3 |
| 20260906130313 | 13 | 175 | 4.8 | 6.4 | 0.00 | 0.00 | 0.00 | 50 | 1027.4 |
| 20260906125814 | 13 | 183 | 4.8 | 6.4 | 0.00 | 0.00 | 0.00 | 50 | 1027.3 |
| 20260906125313 | 13 | 155 | 4.8 | 6.4 | 0.00 | 0.00 | 0.00 | 50 | 1027.3 |
| 20260906124814 | 13 | 173 | 3.2 | 4.8 | 0.00 | 0.00 | 0.00 | 49 | 1027.3 |
| 20260906124313 | 14 | 159 | 3.2 | 4.8 | 0.00 | 0.00 | 0.00 | 50 | 1027.3 |
| 20260906123813 | 14 | 179 | 3.2 | 4.8 | 0.00 | 0.00 | 0.00 | 49 | 1027.1 |
| 20260906123313 | 14 | 188 | 4.8 | 8.0 | 0.00 | 0.00 | 0.00 | 48 | 1027.0 |
| 20260906122813 | 14 | 185 | 6.4 | 6.4 | 0.00 | 0.00 | 0.00 | 48 | 1027.0 |
| 20260906122313 | 14 | 188 | 6.4 | 6.4 | 0.00 | 0.00 | 0.00 | 47 | 1027.0 |
| 20260906121813 | 14 | 182 | 4.8 | 6.4 | 0.00 | 0.00 | 0.00 | 47 | 1027.0 |
| 20260906121313 | 14 | 178 | 3.2 | 6.4 | 0.00 | 0.00 | 0.00 | 48 | 1027.0 |
| 20260906120813 | 14 | 182 | 1.6 | 3.2 | 0.00 | 0.00 | 0.00 | 47 | 1027.0 |
| 20260906120313 | 14 | 197 | 3.2 | 4.8 | 0.00 | 0.00 | 0.00 | 47 | 1027.0 |
| 20260906115814 | 14 | 194 | 3.2 | 4.8 | 0.00 | 0.00 | 0.00 | 47 | 1027.1 |
| 20260906115313 | 14 | 176 | 6.4 | 8.0 | 0.00 | 0.00 | 0.00 | 47 | 1027.0 |
| 20260906114814 | 14 | 157 | 3.2 | 4.8 | 0.00 | 0.00 | 0.00 | 47 | 1027.1 |
| 20260906114314 | 14 | 209 | 3.2 | 4.8 | 0.00 | 0.00 | 0.00 | 46 | 1027.1 |
| 20260906113813 | 14 | 195 | 4.8 | 6.4 | 0.00 | 0.00 | 0.00 | 47 | 1027.1 |
| 20260906113313 | 15 | 183 | 6.4 | 8.0 | 0.00 | 0.00 | 0.00 | 46 | 1027.1 |
| 20260906112813 | 15 | 182 | 6.4 | 8.0 | 0.00 | 0.00 | 0.00 | 46 | 1027.1 |
| 20260906112313 | 14 | 185 | 4.8 | 6.4 | 0.00 | 0.00 | 0.00 | 46 | 1027.1 |
| 20260906111813 | 14 | 188 | 4.8 | 6.4 | 0.00 | 0.00 | 0.00 | 47 | 1027.1 |
| 20260906111313 | 14 | 197 | 6.4 | 8.0 | 0.00 | 0.00 | 0.00 | 47 | 1027.1 |
| 20260906110813 | 14 | 184 | 6.4 | 8.0 | 0.00 | 0.00 | 0.00 | 47 | 1027.1 |
| 20260906110315 | 14 | 201 | 6.4 | 6.4 | 0.00 | 0.00 | 0.00 | 47 | 1027.1 |
| 20260906105813 | 15 | 193 | 4.8 | 6.4 | 0.00 | 0.00 | 0.00 | 47 | 1027.0 |
| 20260906105313 | 15 | 191 | 4.8 | 6.4 | 0.00 | 0.00 | 0.00 | 46 | 1027.0 |
| 20260906104813 | 15 | 192 | 4.8 | 6.4 | 0.00 | 0.00 | 0.00 | 45 | 1027.0 |
| 20260906104313 | 15 | 183 | 6.4 | 6.4 | 0.00 | 0.00 | 0.00 | 45 | 1026.9 |
| 20260906103813 | 15 | 191 | 3.2 | 4.8 | 0.00 | 0.00 | 0.00 | 45 | 1026.9 |
| 20260906103313 | 15 | 219 | 3.2 | 4.8 | 0.00 | 0.00 | 0.00 | 45 | 1026.9 |
| 20260906102813 | 15 | 185 | 4.8 | 6.4 | 0.00 | 0.00 | 0.00 | 45 | 1026.8 |
| 20260906102313 | 15 | 190 | 3.2 | 6.4 | 0.00 | 0.00 | 0.00 | 45 | 1027.0 |
| 20260906101813 | 15 | 189 | 3.2 | 4.8 | 0.00 | 0.00 | 0.00 | 45 | 1027.1 |
| 20260906101313 | 15 | 192 | 3.2 | 4.8 | 0.00 | 0.00 | 0.00 | 44 | 1027.1 |
| 20260906100813 | 15 | 199 | 4.8 | 6.4 | 0.00 | 0.00 | 0.00 | 44 | 1027.0 |
| 20260906100313 | 15 | 194 | 4.8 | 6.4 | 0.00 | 0.00 | 0.00 | 44 | 1027.0 |
| 20260906095813 | 15 | 211 | 4.8 | 6.4 | 0.00 | 0.00 | 0.00 | 43 | 1026.9 |
| 20260906095313 | 15 | 200 | 4.8 | 4.8 | 0.00 | 0.00 | 0.00 | 44 | 1027.0 |
| 20260906094813 | 15 | 195 | 6.4 | 6.4 | 0.00 | 0.00 | 0.00 | 44 | 1026.9 |
| 20260906094313 | 15 | 191 | 6.4 | 8.0 | 0.00 | 0.00 | 0.00 | 44 | 1026.9 |
| 20260906093814 | 15 | 200 | 6.4 | 8.0 | 0.00 | 0.00 | 0.00 | 44 | 1026.9 |
| 20260906093313 | 15 | 199 | 6.4 | 8.0 | 0.00 | 0.00 | 0.00 | 44 | 1026.9 |
| 20260906092814 | 15 | 182 | 4.8 | 4.8 | 0.00 | 0.00 | 0.00 | 44 | 1026.8 |
| 20260906092312 | 16 | 179 | 3.2 | 4.8 | 0.00 | 0.00 | 0.00 | 43 | 1026.9 |
| 20260906091813 | 16 | 193 | 4.8 | 6.4 | 0.00 | 0.00 | 0.00 | 43 | 1026.8 |
| 20260906091313 | 16 | 179 | 4.8 | 8.0 | 0.00 | 0.00 | 0.00 | 43 | 1026.8 |
| 20260906090813 | 16 | 199 | 4.8 | 8.0 | 0.00 | 0.00 | 0.00 | 42 | 1026.8 |
| 20260906090313 | 16 | 199 | 6.4 | 8.0 | 0.00 | 0.00 | 0.00 | 43 | 1026.8 |
| 20260906085813 | 16 | 198 | 6.4 | 8.0 | 0.00 | 0.00 | 0.00 | 43 | 1026.8 |
| 20260906085313 | 16 | 214 | 6.4 | 9.7 | 0.00 | 0.00 | 0.00 | 43 | 1026.6 |
| 20260906084813 | 16 | 194 | 8.0 | 9.7 | 0.00 | 0.00 | 0.00 | 42 | 1026.6 |
| 20260906084313 | 16 | 192 | 6.4 | 9.7 | 0.00 | 0.00 | 0.00 | 42 | 1026.6 |
| 20260906083813 | 16 | 194 | 6.4 | 9.7 | 0.00 | 0.00 | 0.00 | 42 | 1026.6 |
| 20260906083313 | 16 | 200 | 8.0 | 11.3 | 0.00 | 0.00 | 0.00 | 41 | 1026.6 |
| 20260906082813 | 16 | 191 | 8.0 | 11.3 | 0.00 | 0.00 | 0.00 | 41 | 1026.6 |
| 20260906082313 | 16 | 199 | 9.7 | 11.3 | 0.00 | 0.00 | 0.00 | 40 | 1026.6 |
| 20260906081813 | 17 | 184 | 8.0 | 9.7 | 0.00 | 0.00 | 0.00 | 40 | 1026.5 |
| 20260906081313 | 17 | 189 | 8.0 | 11.3 | 0.00 | 0.00 | 0.00 | 40 | 1026.6 |
| 20260906080813 | 17 | 190 | 8.0 | 9.7 | 0.00 | 0.00 | 0.00 | 39 | 1026.6 |
| 20260906080313 | 17 | 193 | 6.4 | 8.0 | 0.00 | 0.00 | 0.00 | 38 | 1026.8 |
| 20260906075813 | 17 | 185 | 4.8 | 6.4 | 0.00 | 0.00 | 0.00 | 37 | 1026.8 |
| 20260906075313 | 17 | 203 | 6.4 | 6.4 | 0.00 | 0.00 | 0.00 | 37 | 1026.8 |
| 20260906074813 | 17 | 205 | 4.8 | 6.4 | 0.00 | 0.00 | 0.00 | 37 | 1026.8 |
| 20260906074313 | 17 | 201 | 6.4 | 6.4 | 0.00 | 0.00 | 0.00 | 37 | 1026.8 |
| 20260906073813 | 17 | 202 | 4.8 | 8.0 | 0.00 | 0.00 | 0.00 | 37 | 1026.8 |
| 20260906073313 | 17 | 209 | 6.4 | 8.0 | 0.00 | 0.00 | 0.00 | 37 | 1026.8 |
| 20260906072813 | 17 | 205 | 6.4 | 8.0 | 0.00 | 0.00 | 0.00 | 38 | 1026.8 |
| 20260906072314 | 17 | 204 | 6.4 | 9.7 | 0.00 | 0.00 | 0.00 | 37 | 1026.6 |
| 20260906071813 | 17 | 197 | 6.4 | 9.7 | 0.00 | 0.00 | 0.00 | 37 | 1026.8 |
| 20260906071313 | 17 | 210 | 6.4 | 8.0 | 0.00 | 0.00 | 0.00 | 37 | 1026.6 |
| 20260906070813 | 17 | 210 | 6.4 | 8.0 | 0.00 | 0.00 | 0.00 | 38 | 1026.6 |
| 20260906070313 | 17 | 207 | 6.4 | 8.0 | 0.00 | 0.00 | 0.00 | 38 | 1026.6 |
| 20260906065813 | 17 | 209 | 6.4 | 6.4 | 0.00 | 0.00 | 0.00 | 39 | 1026.8 |
| 20260906065313 | 17 | 226 | 4.8 | 8.0 | 0.00 | 0.00 | 0.00 | 39 | 1026.8 |
| 20260906064813 | 17 | 200 | 8.0 | 9.7 | 0.00 | 0.00 | 0.00 | 39 | 1026.8 |
| 20260906064313 | 17 | 208 | 6.4 | 8.0 | 0.00 | 0.00 | 0.00 | 39 | 1026.8 |
| 20260906063813 | 17 | 195 | 6.4 | 9.7 | 0.00 | 0.00 | 0.00 | 39 | 1026.8 |
| 20260906063313 | 17 | 187 | 8.0 | 9.7 | 0.00 | 0.00 | 0.00 | 39 | 1026.8 |
| 20260906062813 | 18 | 180 | 4.8 | 6.4 | 0.00 | 0.00 | 0.00 | 37 | 1026.8 |
| 20260906062313 | 18 | 174 | 1.6 | 4.8 | 0.00 | 0.00 | 0.00 | 35 | 1026.8 |
| 20260906061814 | 18 | 159 | 4.8 | 6.4 | 0.00 | 0.00 | 0.00 | 36 | 1026.8 |
| 20260906061313 | 18 | 199 | 4.8 | 6.4 | 0.00 | 0.00 | 0.00 | 35 | 1026.6 |
| 20260906060813 | 18 | 198 | 1.6 | 3.2 | 0.00 | 0.00 | 0.00 | 34 | 1026.6 |
| 20260906060313 | 18 | 226 | 4.8 | 6.4 | 0.00 | 0.00 | 0.00 | 34 | 1026.6 |
| 20260906055813 | 18 | 233 | 3.2 | 4.8 | 0.00 | 0.00 | 0.00 | 34 | 1026.6 |
| 20260906055313 | 18 | 212 | 4.8 | 4.8 | 0.00 | 0.00 | 0.00 | 34 | 1026.6 |
| 20260906054813 | 19 | 218 | 4.8 | 6.4 | 0.00 | 0.00 | 0.00 | 33 | 1026.5 |
| 20260906054313 | 20 | 204 | 4.8 | 8.0 | 0.00 | 0.00 | 0.00 | 31 | 1026.5 |
| 20260906053813 | 19 | 225 | 3.2 | 4.8 | 0.00 | 0.00 | 0.00 | 30 | 1026.6 |
| 20260906053313 | 19 | 221 | 3.2 | 6.4 | 0.00 | 0.00 | 0.00 | 31 | 1026.5 |
| 20260906052813 | 18 | 210 | 1.6 | 3.2 | 0.00 | 0.00 | 0.00 | 33 | 1026.6 |
| 20260906052313 | 19 | 214 | 0.0 | 1.6 | 0.00 | 0.00 | 0.00 | 32 | 1026.8 |
| 20260906051813 | 19 | 60 | 0.0 | 3.2 | 0.00 | 0.00 | 0.00 | 31 | 1026.6 |
| 20260906051313 | 19 | 238 | 3.2 | 4.8 | 0.00 | 0.00 | 0.00 | 31 | 1026.5 |
| 20260906050815 | 20 | 146 | 0.0 | 1.6 | 0.00 | 0.00 | 0.00 | 32 | 1026.6 |
| 20260906050313 | 20 | 240 | 3.2 | 4.8 | 0.00 | 0.00 | 0.00 | 31 | 1026.6 |
| 20260906045813 | 20 | 250 | 4.8 | 6.4 | 0.00 | 0.00 | 0.00 | 32 | 1026.6 |
| 20260906045313 | 19 | 194 | 1.6 | 3.2 | 0.00 | 0.00 | 0.00 | 32 | 1026.5 |
| 20260906044813 | 20 | 190 | 1.6 | 3.2 | 0.00 | 0.00 | 0.00 | 32 | 1026.6 |
| 20260906044313 | 20 | 275 | 0.0 | 1.6 | 0.00 | 0.00 | 0.00 | 33 | 1026.5 |
| 20260906043813 | 20 | 114 | 3.2 | 3.2 | 0.00 | 0.00 | 0.00 | 32 | 1026.5 |
| 20260906043314 | 19 | 216 | 3.2 | 4.8 | 0.00 | 0.00 | 0.00 | 32 | 1026.6 |
| 20260906042813 | 19 | 231 | 1.6 | 3.2 | 0.00 | 0.00 | 0.00 | 33 | 1026.5 |
| 20260906042313 | 19 | 174 | 1.6 | 3.2 | 0.00 | 0.00 | 0.00 | 33 | 1026.5 |
| 20260906041813 | 19 | 212 | 1.6 | 6.4 | 0.00 | 0.00 | 0.00 | 31 | 1026.5 |
| 20260906041313 | 20 | 189 | 1.6 | 3.2 | 0.00 | 0.00 | 0.00 | 32 | 1026.5 |
| 20260906040814 | 20 | 25 | 1.6 | 4.8 | 0.00 | 0.00 | 0.00 | 30 | 1026.4 |
| 20260906040313 | 20 | 358 | 4.8 | 8.0 | 0.00 | 0.00 | 0.00 | 29 | 1026.4 |
| 20260906035813 | 20 | 103 | 3.2 | 6.4 | 0.00 | 0.00 | 0.00 | 29 | 1026.3 |
| 20260906035313 | 20 | 11 | 4.8 | 6.4 | 0.00 | 0.00 | 0.00 | 29 | 1026.3 |
| 20260906034814 | 20 | 359 | 4.8 | 8.0 | 0.00 | 0.00 | 0.00 | 30 | 1026.1 |
| 20260906034313 | 20 | 346 | 4.8 | 8.0 | 0.00 | 0.00 | 0.00 | 30 | 1026.1 |
| 20260906033813 | 20 | 360 | 6.4 | 9.7 | 0.00 | 0.00 | 0.00 | 30 | 1026.0 |
| 20260906033315 | 20 | 360 | 6.4 | 12.9 | 0.00 | 0.00 | 0.00 | 30 | 1026.1 |
| 20260906032813 | 20 | 356 | 6.4 | 9.7 | 0.00 | 0.00 | 0.00 | 30 | 1026.1 |
| 20260906032313 | 20 | 354 | 9.7 | 12.9 | 0.00 | 0.00 | 0.00 | 30 | 1026.0 |
| 20260906031813 | 20 | 355 | 9.7 | 11.3 | 0.00 | 0.00 | 0.00 | 30 | 1026.0 |
| 20260906031313 | 20 | 345 | 4.8 | 8.0 | 0.00 | 0.00 | 0.00 | 30 | 1026.0 |
| 20260906030813 | 20 | 346 | 6.4 | 11.3 | 0.00 | 0.00 | 0.00 | 30 | 1025.9 |
| 20260906030313 | 20 | 336 | 6.4 | 9.7 | 0.00 | 0.00 | 0.00 | 30 | 1025.9 |
| 20260906025813 | 21 | 338 | 6.4 | 11.3 | 0.00 | 0.00 | 0.00 | 30 | 1025.8 |
| 20260906025313 | 21 | 350 | 6.4 | 9.7 | 0.00 | 0.00 | 0.00 | 30 | 1025.8 |
| 20260906024813 | 21 | 302 | 4.8 | 11.3 | 0.00 | 0.00 | 0.00 | 30 | 1025.8 |
| 20260906024314 | 21 | 352 | 3.2 | 4.8 | 0.00 | 0.00 | 0.00 | 30 | 1025.8 |
| 20260906023813 | 21 | 355 | 4.8 | 9.7 | 0.00 | 0.00 | 0.00 | 29 | 1025.6 |
| 20260906023313 | 21 | 314 | 3.2 | 6.4 | 0.00 | 0.00 | 0.00 | 29 | 1025.6 |
| 20260906022813 | 21 | 304 | 6.4 | 14.5 | 0.00 | 0.00 | 0.00 | 29 | 1025.5 |
| 20260906022313 | 21 | 331 | 8.0 | 12.9 | 0.00 | 0.00 | 0.00 | 29 | 1025.4 |
| 20260906021814 | 21 | 274 | 6.4 | 14.5 | 0.00 | 0.00 | 0.00 | 29 | 1025.4 |
| 20260906021313 | 21 | 285 | 4.8 | 9.7 | 0.00 | 0.00 | 0.00 | 29 | 1025.3 |
| 20260906020813 | 21 | 278 | 6.4 | 11.3 | 0.00 | 0.00 | 0.00 | 29 | 1025.3 |
| 20260906020314 | 21 | 307 | 6.4 | 12.9 | 0.00 | 0.00 | 0.00 | 30 | 1025.1 |
| 20260906015813 | 21 | 306 | 3.2 | 8.0 | 0.00 | 0.00 | 0.00 | 30 | 1025.1 |
| 20260906015313 | 21 | 288 | 4.8 | 8.0 | 0.00 | 0.00 | 0.00 | 30 | 1025.1 |
| 20260906014814 | 21 | 315 | 9.7 | 14.5 | 0.00 | 0.00 | 0.00 | 30 | 1025.1 |
| 20260906014313 | 22 | 347 | 3.2 | 6.4 | 0.00 | 0.00 | 0.00 | 30 | 1025.1 |
| 20260906013813 | 22 | 338 | 4.8 | 11.3 | 0.00 | 0.00 | 0.00 | 30 | 1025.1 |
| 20260906013313 | 22 | 357 | 1.6 | 6.4 | 0.00 | 0.00 | 0.00 | 30 | 1025.3 |
| 20260906012813 | 22 | 331 | 3.2 | 6.4 | 0.00 | 0.00 | 0.00 | 30 | 1025.3 |
| 20260906012313 | 22 | 329 | 8.0 | 12.9 | 0.00 | 0.00 | 0.00 | 29 | 1025.1 |
| 20260906011813 | 22 | 322 | 4.8 | 9.7 | 0.00 | 0.00 | 0.00 | 29 | 1025.1 |
| 20260906011314 | 22 | 341 | 9.7 | 12.9 | 0.00 | 0.00 | 0.00 | 29 | 1025.1 |
| 20260906010813 | 22 | 324 | 6.4 | 11.3 | 0.00 | 0.00 | 0.00 | 29 | 1025.3 |
| 20260906010313 | 22 | 296 | 4.8 | 6.4 | 0.00 | 0.00 | 0.00 | 29 | 1025.3 |
| 20260906005813 | 22 | 308 | 3.2 | 4.8 | 0.00 | 0.00 | 0.00 | 30 | 1025.4 |
| 20260906005313 | 22 | 313 | 3.2 | 6.4 | 0.00 | 0.00 | 0.00 | 29 | 1025.4 |
| 20260906004813 | 22 | 321 | 4.8 | 8.0 | 0.00 | 0.00 | 0.00 | 29 | 1025.3 |
| 20260906004313 | 23 | 354 | 8.0 | 12.9 | 0.00 | 0.00 | 0.00 | 29 | 1025.1 |
| 20260906003813 | 23 | 331 | 8.0 | 9.7 | 0.00 | 0.00 | 0.00 | 29 | 1025.1 |
| 20260906003313 | 23 | 343 | 9.7 | 14.5 | 0.00 | 0.00 | 0.00 | 28 | 1025.0 |
| 20260906002813 | 23 | 334 | 11.3 | 16.1 | 0.00 | 0.00 | 0.00 | 28 | 1025.0 |
| 20260906002313 | 23 | 354 | 12.9 | 16.1 | 0.00 | 0.00 | 0.00 | 28 | 1025.0 |
| 20260906001814 | 23 | 345 | 12.9 | 22.5 | 0.00 | 0.00 | 0.00 | 28 | 1025.0 |
| 20260906001313 | 23 | 9 | 6.4 | 11.3 | 0.00 | 0.00 | 0.00 | 28 | 1025.0 |
| 20260906000813 | 23 | 349 | 9.7 | 16.1 | 0.00 | 0.00 | 0.00 | 28 | 1025.0 |
| 20260906000313 | 23 | 29 | 4.8 | 9.7 | 0.00 | 0.00 | 0.00 | 28 | 1025.1 |
| 20260905235814 | 23 | 359 | 11.3 | 16.1 | 0.00 | 0.00 | 0.00 | 27 | 1025.0 |
| 20260905235313 | 24 | 327 | 9.7 | 14.5 | 0.00 | 0.00 | 0.00 | 28 | 1025.1 |
| 20260905234813 | 24 | 356 | 12.9 | 19.3 | 0.00 | 0.00 | 0.00 | 27 | 1025.1 |
| 20260905234313 | 24 | 343 | 11.3 | 19.3 | 0.00 | 0.00 | 0.00 | 26 | 1025.0 |
| 20260905233814 | 24 | 346 | 6.4 | 14.5 | 0.00 | 0.00 | 0.00 | 27 | 1025.0 |
| 20260905233313 | 24 | 326 | 11.3 | 14.5 | 0.00 | 0.00 | 0.00 | 27 | 1025.1 |
| 20260905232813 | 24 | 346 | 14.5 | 19.3 | 0.00 | 0.00 | 0.00 | 26 | 1025.1 |
| 20260905232313 | 24 | 324 | 8.0 | 12.9 | 0.00 | 0.00 | 0.00 | 27 | 1025.3 |
| 20260905231813 | 24 | 350 | 14.5 | 17.7 | 0.00 | 0.00 | 0.00 | 27 | 1025.1 |
| 20260905231313 | 24 | 339 | 12.9 | 17.7 | 0.00 | 0.00 | 0.00 | 27 | 1025.1 |
| 20260905230813 | 23 | 346 | 11.3 | 17.7 | 0.00 | 0.00 | 0.00 | 27 | 1024.9 |
| 20260905230314 | 23 | 330 | 14.5 | 19.3 | 0.00 | 0.00 | 0.00 | 28 | 1024.9 |
| 20260905225813 | 24 | 332 | 16.1 | 22.5 | 0.00 | 0.00 | 0.00 | 28 | 1025.0 |